Time;durP1;ratioP1;P1;durP2;ratioP2;P2;SDS_P1;SDS_P2;PMS_P1;PMS_P2;Temp;Humidity;BMP_temperature;BMP_pressure;BME280_temperature;BME280_humidity;BME280_pressure;Samples;Min_cycle;Max_cycle;Signal;HPM_P1;HPM_P2
2024/04/25 00:09:27;;;;;;;7.30;1.77;;;4.30;99.90;;;;;;21860755;26;20021;-78
2024/04/25 00:19:28;;;;;;;6.32;1.75;;;4.50;99.90;;;;;;21850016;27;20009;-79
2024/04/25 00:29:29;;;;;;;6.63;1.50;;;4.70;99.90;;;;;;21957967;26;20045;-81
2024/04/25 00:39:30;;;;;;;5.90;1.67;;;4.80;99.90;;;;;;21904546;26;20012;-82
2024/04/25 00:49:31;;;;;;;5.03;1.73;;;4.80;99.90;;;;;;21709861;27;20393;-81
2024/04/25 00:59:33;;;;;;;5.43;1.25;;;4.80;99.90;;;;;;21723660;27;20644;-82
2024/04/25 01:09:35;;;;;;;4.18;1.08;;;4.70;99.90;;;;;;21718897;27;20006;-82
2024/04/25 01:19:35;;;;;;;4.63;1.55;;;4.50;99.90;;;;;;21702102;27;20013;-83
2024/04/25 01:29:37;;;;;;;3.53;1.10;;;4.40;99.90;;;;;;21723408;27;20010;-82
2024/04/25 01:39:38;;;;;;;3.38;1.08;;;4.30;99.90;;;;;;21707501;27;20000;-81
2024/04/25 01:49:39;;;;;;;5.35;1.40;;;4.10;99.90;;;;;;21734926;27;20038;-81
2024/04/25 01:59:40;;;;;;;3.03;1.33;;;4.00;99.90;;;;;;21736879;27;20007;-79
2024/04/25 02:09:41;;;;;;;3.88;1.70;;;4.00;99.90;;;;;;21731046;27;20294;-79
2024/04/25 02:19:42;;;;;;;3.92;1.67;;;4.00;99.90;;;;;;21710672;27;20569;-79
2024/04/25 02:29:43;;;;;;;9.75;2.88;;;4.10;99.90;;;;;;21733133;27;20006;-79
2024/04/25 02:39:44;;;;;;;6.35;2.40;;;4.10;99.90;;;;;;21731847;27;20007;-81
2024/04/25 02:49:45;;;;;;;7.25;2.50;;;4.20;99.90;;;;;;21728547;27;20570;-79
2024/04/25 02:59:46;;;;;;;6.63;2.15;;;4.40;99.90;;;;;;21729946;27;20014;-79
2024/04/25 03:09:47;;;;;;;6.13;2.35;;;4.40;99.90;;;;;;21710321;27;20558;-82
2024/04/25 03:19:48;;;;;;;7.38;1.70;;;4.40;99.90;;;;;;21731489;27;20466;-82
2024/04/25 03:29:50;;;;;;;8.05;2.35;;;4.30;99.90;;;;;;21732979;27;20003;-82
2024/04/25 03:39:51;;;;;;;6.25;2.25;;;4.30;99.90;;;;;;21710757;27;20003;-81
2024/04/25 03:49:51;;;;;;;6.20;2.33;;;4.30;99.90;;;;;;21710644;27;20015;-81
2024/04/25 03:59:52;;;;;;;11.63;2.95;;;4.20;99.90;;;;;;21730722;27;20003;-83
2024/04/25 04:09:54;;;;;;;6.65;2.65;;;4.20;99.90;;;;;;21723506;27;21617;-81
2024/04/25 04:19:56;;;;;;;6.68;2.97;;;4.20;99.90;;;;;;21711764;27;20013;-82
2024/04/25 04:29:57;;;;;;;8.43;2.92;;;4.30;99.90;;;;;;21730144;27;20014;-82
2024/04/25 04:39:58;;;;;;;6.88;2.13;;;4.40;99.90;;;;;;21786463;26;20002;-83
2024/04/25 04:49:59;;;;;;;5.85;2.00;;;4.50;99.90;;;;;;21862330;26;20017;-81
2024/04/25 05:00:00;;;;;;;8.07;2.30;;;4.50;99.90;;;;;;21837510;26;20002;-84
2024/04/25 05:10:00;;;;;;;5.40;2.10;;;4.60;99.90;;;;;;21839366;27;19994;-82
2024/04/25 05:20:01;;;;;;;8.10;2.40;;;4.70;99.90;;;;;;21866340;27;20020;-84
2024/04/25 05:30:04;;;;;;;7.80;2.67;;;4.90;99.90;;;;;;21854647;27;19998;-84
2024/04/25 05:40:06;;;;;;;10.57;2.72;;;4.90;99.90;;;;;;21880575;26;19995;-84
2024/04/25 05:50:07;;;;;;;9.27;2.80;;;5.00;99.90;;;;;;21878056;26;20968;-84
2024/04/25 06:00:08;;;;;;;8.60;2.83;;;5.20;99.90;;;;;;21858579;27;20339;-82
2024/04/25 06:10:09;;;;;;;7.45;2.58;;;5.50;99.90;;;;;;21853539;26;20012;-80
2024/04/25 06:20:16;;;;;;;5.28;2.30;;;5.70;99.90;;;;;;21884043;27;20001;-82
2024/04/25 06:30:17;;;;;;;9.67;2.43;;;5.80;99.90;;;;;;21857681;27;20002;-76
2024/04/25 06:40:18;;;;;;;8.30;2.33;;;6.00;99.90;;;;;;21873072;26;20090;-77
2024/04/25 06:50:19;;;;;;;10.10;2.33;;;6.10;99.90;;;;;;21856060;26;20017;-76
2024/04/25 07:00:21;;;;;;;7.05;2.85;;;6.30;99.90;;;;;;21853785;27;20552;-76
2024/04/25 07:10:21;;;;;;;8.13;2.95;;;6.40;98.20;;;;;;21846615;27;20004;-76
2024/04/25 07:20:23;;;;;;;12.27;3.10;;;6.60;90.40;;;;;;21854542;27;19998;-76
2024/04/25 07:30:24;;;;;;;9.35;2.45;;;6.70;74.60;;;;;;21851615;27;20576;-75
2024/04/25 07:40:25;;;;;;;7.78;2.95;;;6.90;29.50;;;;;;21784376;27;20560;-76
2024/04/25 07:50:26;;;;;;;6.30;1.30;;;7.30;27.90;;;;;;21731199;27;20010;-75
2024/04/25 08:00:28;;;;;;;8.65;1.20;;;7.20;3.50;;;;;;21699346;27;20022;-76
2024/04/25 08:10:29;;;;;;;5.95;1.65;;;7.20;3.70;;;;;;21719495;27;19994;-76
2024/04/25 08:20:30;;;;;;;8.55;1.20;;;7.20;1.00;;;;;;21725372;27;20007;-78
2024/04/25 08:30:31;;;;;;;5.45;1.20;;;7.10;1.00;;;;;;21707464;27;21073;-75
2024/04/25 08:40:35;;;;;;;4.50;0.95;;;7.20;1.00;;;;;;21722955;27;20006;-76
2024/04/25 08:50:36;;;;;;;5.50;1.90;;;7.50;1.00;;;;;;21729822;27;20490;-76
2024/04/25 09:00:37;;;;;;;7.93;1.83;;;7.50;1.00;;;;;;21739641;27;20494;-78
2024/04/25 09:10:42;;;;;;;3.67;1.20;;;7.50;1.00;;;;;;21730126;27;20011;-77
2024/04/25 09:20:44;;;;;;;5.18;1.10;;;6.80;1.00;;;;;;21734753;27;20017;-75
2024/04/25 09:30:45;;;;;;;6.03;1.55;;;6.30;5.30;;;;;;21720095;27;20018;-76
2024/04/25 09:40:47;;;;;;;5.47;1.45;;;6.30;21.60;;;;;;21820801;27;20006;-77
2024/04/25 09:51:04;;;;;;;4.97;2.30;;;6.30;33.80;;;;;;21854933;27;20024;-77
2024/04/25 10:01:07;;;;;;;5.88;2.25;;;6.50;49.00;;;;;;21872471;27;20013;-76
2024/04/25 10:11:10;;;;;;;9.05;2.92;;;6.80;54.50;;;;;;21872015;27;19998;-75
2024/04/25 10:21:11;;;;;;;6.78;2.70;;;6.90;59.80;;;;;;21861189;27;20323;-76
2024/04/25 10:31:12;;;;;;;6.90;2.85;;;6.90;31.80;;;;;;21869891;26;20009;-77
2024/04/25 10:41:13;;;;;;;6.70;3.00;;;6.80;28.40;;;;;;21780047;26;20359;-77
2024/04/25 10:51:14;;;;;;;8.60;3.00;;;6.70;45.60;;;;;;21733479;27;20121;-77
2024/04/25 11:01:28;;;;;;;8.57;3.25;;;6.90;64.40;;;;;;21698836;27;20003;-77
2024/04/25 11:11:30;;;;;;;8.48;3.05;;;7.20;50.90;;;;;;21726509;27;20002;-79
2024/04/25 11:21:31;;;;;;;6.80;2.75;;;7.60;41.80;;;;;;21733431;27;20696;-79
2024/04/25 11:31:34;;;;;;;8.57;3.05;;;8.10;24.60;;;;;;21710189;27;20011;-81
2024/04/25 11:41:35;;;;;;;9.07;2.83;;;8.70;1.00;;;;;;21840512;27;19998;-80
2024/04/25 11:51:36;;;;;;;5.43;2.67;;;9.40;1.00;;;;;;21839311;27;19994;-80
2024/04/25 12:01:37;;;;;;;7.60;2.15;;;9.90;1.00;;;;;;21713702;27;20003;-80
2024/04/25 12:11:39;;;;;;;6.85;2.13;;;10.80;1.00;;;;;;21726025;27;20002;-81
2024/04/25 12:21:40;;;;;;;8.32;2.65;;;10.90;1.00;;;;;;21724823;27;20007;-80
2024/04/25 12:31:42;;;;;;;7.82;2.45;;;11.50;1.00;;;;;;21710911;27;20052;-80
2024/04/25 12:41:43;;;;;;;8.48;2.58;;;11.50;1.00;;;;;;21823813;26;20442;-80
2024/04/25 12:51:44;;;;;;;6.28;2.35;;;11.50;1.00;;;;;;21844990;27;20541;-81
2024/04/25 13:01:45;;;;;;;7.22;3.03;;;11.40;1.00;;;;;;21856272;26;20478;-80
2024/04/25 13:11:46;;;;;;;10.60;2.90;;;10.50;1.00;;;;;;21862422;27;20002;-81
2024/04/25 13:21:48;;;;;;;6.88;3.10;;;10.20;1.00;;;;;;21860811;26;20459;-81
2024/04/25 13:31:50;;;;;;;11.00;3.92;;;9.90;1.00;;;;;;21859241;27;19994;-81
2024/04/25 13:41:51;;;;;;;12.32;4.68;;;9.60;1.00;;;;;;21770996;27;20017;-81
2024/04/25 13:51:52;;;;;;;8.27;4.50;;;9.60;1.00;;;;;;21714589;27;20361;-81
2024/04/25 14:01:53;;;;;;;7.30;4.60;;;9.40;1.00;;;;;;21728887;27;20026;-81
2024/04/25 14:11:54;;;;;;;9.10;4.28;;;9.50;1.00;;;;;;21731365;27;19995;-81
2024/04/25 14:21:55;;;;;;;11.75;5.00;;;9.70;1.00;;;;;;21703030;27;20003;-81
2024/04/25 14:31:56;;;;;;;7.70;4.55;;;9.80;1.00;;;;;;21734246;27;20068;-81
2024/04/25 14:41:57;;;;;;;12.00;6.15;;;9.50;1.00;;;;;;21819888;27;20421;-81
2024/04/25 14:51:58;;;;;;;10.00;5.45;;;9.40;1.00;;;;;;21849677;26;20018;-81
2024/04/25 15:01:59;;;;;;;8.88;5.95;;;9.30;1.00;;;;;;21846442;26;20012;-83
2024/04/25 15:12:04;;;;;;;13.05;6.78;;;9.10;1.00;;;;;;21853658;27;20013;-81
2024/04/25 15:22:09;;;;;;;13.32;6.85;;;9.00;1.00;;;;;;21873713;27;20027;-81
2024/04/25 15:32:10;;;;;;;13.63;7.38;;;9.00;1.00;;;;;;21846928;27;19998;-81
2024/04/25 15:42:14;;;;;;;11.75;6.78;;;8.70;1.00;;;;;;21870454;26;20010;-82
2024/04/25 15:52:16;;;;;;;13.57;7.85;;;8.40;1.00;;;;;;21851188;27;20008;-83
2024/04/25 16:02:18;;;;;;;15.48;7.85;;;8.30;1.00;;;;;;21872509;26;20003;-84
2024/04/25 16:12:19;;;;;;;16.40;8.15;;;8.30;1.00;;;;;;21863225;26;20013;-81
2024/04/25 16:22:20;;;;;;;14.30;8.05;;;7.70;1.00;;;;;;21826714;27;20010;-80
2024/04/25 16:32:21;;;;;;;17.38;9.32;;;7.10;11.30;;;;;;21806872;27;20419;-80
2024/04/25 16:42:22;;;;;;;19.77;9.73;;;6.80;49.00;;;;;;21817069;27;20493;-81
2024/04/25 16:52:24;;;;;;;21.38;10.27;;;6.80;91.70;;;;;;21838355;27;20054;-80
2024/04/25 17:02:25;;;;;;;20.88;10.23;;;6.90;94.70;;;;;;21856201;26;20009;-81
2024/04/25 17:12:26;;;;;;;23.48;12.32;;;6.90;95.40;;;;;;21868325;27;20003;-81
2024/04/25 17:22:27;;;;;;;21.70;11.20;;;6.90;99.20;;;;;;21852764;27;20335;-79
2024/04/25 17:32:28;;;;;;;20.70;10.73;;;7.00;99.90;;;;;;21883846;27;20017;-80
2024/04/25 17:42:29;;;;;;;20.02;10.32;;;7.00;94.70;;;;;;21773615;26;20013;-80
2024/04/25 17:52:30;;;;;;;18.27;11.57;;;7.00;97.60;;;;;;21715900;27;20011;-78
2024/04/25 18:02:36;;;;;;;23.88;11.30;;;6.90;99.90;;;;;;21663243;27;20479;-78
2024/04/25 18:12:37;;;;;;;19.48;11.45;;;6.90;99.90;;;;;;21723478;27;20014;-79
2024/04/25 18:22:40;;;;;;;21.13;11.85;;;6.90;99.90;;;;;;21722685;27;20684;-78
2024/04/25 18:32:41;;;;;;;3.42;2.30;;;7.00;99.90;;;;;;21731574;27;20046;-78
2024/04/25 18:42:42;;;;;;;5.13;2.40;;;6.80;98.20;;;;;;21716932;27;20021;-81
2024/04/25 18:52:45;;;;;;;4.53;3.15;;;6.40;99.90;;;;;;21743684;27;20025;-80
2024/04/25 19:02:46;;;;;;;7.25;4.90;;;6.20;99.90;;;;;;21735129;27;20003;-80
2024/04/25 19:12:49;;;;;;;9.43;4.88;;;6.10;99.90;;;;;;21736149;27;20021;-80
2024/04/25 19:22:50;;;;;;;9.45;5.88;;;6.20;99.90;;;;;;21765378;27;20487;-81
2024/04/25 19:32:51;;;;;;;12.32;6.90;;;6.20;99.90;;;;;;21732641;27;20456;-81
2024/04/25 19:42:52;;;;;;;13.07;8.73;;;6.30;99.90;;;;;;21847427;27;20513;-79
2024/04/25 19:52:57;;;;;;;11.75;8.40;;;6.30;99.90;;;;;;21851917;26;19998;-82
2024/04/25 20:02:58;;;;;;;15.68;10.18;;;6.30;99.90;;;;;;21821525;27;19997;-80
2024/04/25 20:12:59;;;;;;;16.80;10.50;;;6.40;99.90;;;;;;21839072;27;20074;-79
2024/04/25 20:23:00;;;;;;;17.00;11.50;;;6.40;99.90;;;;;;21873629;27;20002;-79
2024/04/25 20:33:01;;;;;;;18.35;12.32;;;6.40;99.90;;;;;;21860890;26;20454;-81
2024/04/25 20:43:02;;;;;;;18.20;12.02;;;6.50;99.90;;;;;;21729389;27;20458;-79
2024/04/25 20:53:03;;;;;;;16.25;11.07;;;6.50;99.90;;;;;;21710468;27;20109;-81
2024/04/25 21:03:04;;;;;;;19.40;11.60;;;6.40;99.90;;;;;;21704859;27;20005;-81
2024/04/25 21:13:05;;;;;;;20.95;12.10;;;6.50;99.90;;;;;;21709186;27;20514;-81
2024/04/25 21:23:06;;;;;;;22.05;13.57;;;6.50;99.90;;;;;;21729133;27;20478;-79
2024/04/25 21:33:07;;;;;;;23.88;13.75;;;6.60;99.90;;;;;;21733060;27;20013;-81
2024/04/25 21:43:08;;;;;;;24.73;15.93;;;6.60;99.90;;;;;;21823429;26;20068;-81
2024/04/25 21:53:09;;;;;;;25.15;15.13;;;6.60;99.90;;;;;;21861989;26;20010;-80
2024/04/25 22:03:10;;;;;;;25.48;16.27;;;6.60;99.90;;;;;;21847038;26;20053;-80
2024/04/25 22:13:11;;;;;;;32.03;16.35;;;6.70;99.90;;;;;;21877610;26;19998;-80
2024/04/25 22:23:12;;;;;;;22.15;13.32;;;6.70;99.90;;;;;;21941580;26;20213;-81
2024/04/25 22:33:13;;;;;;;31.05;16.75;;;6.70;99.90;;;;;;21990055;26;19994;-79
2024/04/25 22:43:14;;;;;;;29.73;17.40;;;6.70;99.90;;;;;;21794582;27;20537;-79
2024/04/25 22:53:15;;;;;;;32.97;18.10;;;6.70;99.90;;;;;;21713551;27;20024;-80
2024/04/25 23:03:16;;;;;;;26.38;16.58;;;6.70;99.90;;;;;;21725702;27;20007;-79
2024/04/25 23:13:17;;;;;;;28.83;17.00;;;6.70;99.90;;;;;;21714679;27;20006;-79
2024/04/25 23:23:18;;;;;;;30.25;17.15;;;6.70;99.90;;;;;;21715387;27;20553;-81
2024/04/25 23:33:19;;;;;;;30.25;17.13;;;6.70;99.90;;;;;;21735351;27;20014;-82
2024/04/25 23:43:20;;;;;;;32.13;18.10;;;6.70;99.90;;;;;;21869862;26;20014;-80
2024/04/25 23:53:21;;;;;;;30.95;16.88;;;6.70;99.90;;;;;;21874534;27;20014;-80
